Time;durP1;ratioP1;P1;durP2;ratioP2;P2;SDS_P1;SDS_P2;PMS_P1;PMS_P2;Temp;Humidity;BMP_temperature;BMP_pressure;BME280_temperature;BME280_humidity;BME280_pressure;Samples;Min_cycle;Max_cycle;Signal;HPM_P1;HPM_P2
2021/04/01 00:01:35;;;;;;;9.85;6.30;;;13.10;49.70;;;;;;5089892;28;20141;-68
2021/04/01 00:04:01;;;;;;;11.40;6.60;;;13.10;49.80;;;;;;5054323;28;20440;-68
2021/04/01 00:06:26;;;;;;;11.48;6.45;;;13.10;49.80;;;;;;5055956;28;20356;-67
2021/04/01 00:08:52;;;;;;;11.60;5.70;;;13.00;49.80;;;;;;5061694;28;20456;-68
2021/04/01 00:11:18;;;;;;;9.68;6.03;;;12.90;50.10;;;;;;5072729;28;20154;-68
2021/04/01 00:13:43;;;;;;;11.45;6.30;;;12.90;50.50;;;;;;5058228;28;20023;-68
2021/04/01 00:16:09;;;;;;;11.73;6.75;;;12.90;50.30;;;;;;5060082;28;20068;-67
2021/04/01 00:18:35;;;;;;;10.45;6.20;;;12.80;50.50;;;;;;5089518;28;20015;-67
2021/04/01 00:21:01;;;;;;;8.73;6.00;;;12.80;50.30;;;;;;5066483;28;20024;-67
2021/04/01 00:23:27;;;;;;;12.18;5.80;;;12.80;50.40;;;;;;5072755;28;20093;-68
2021/04/01 00:25:53;;;;;;;12.02;6.32;;;12.70;50.30;;;;;;5067186;28;20119;-67
2021/04/01 00:28:18;;;;;;;11.43;5.95;;;12.60;50.40;;;;;;5070971;28;20035;-68
2021/04/01 00:30:44;;;;;;;11.00;6.05;;;12.60;50.50;;;;;;5061476;28;20081;-68
2021/04/01 00:33:10;;;;;;;16.77;6.50;;;12.50;50.70;;;;;;5065444;28;20024;-68
2021/04/01 00:35:35;;;;;;;13.55;6.07;;;12.50;50.80;;;;;;5064135;28;20034;-67
2021/04/01 00:38:01;;;;;;;12.63;6.25;;;12.40;50.80;;;;;;5067349;28;20167;-67
2021/04/01 00:40:27;;;;;;;10.85;5.95;;;12.40;51.00;;;;;;5066452;28;20039;-68
2021/04/01 00:42:53;;;;;;;11.25;5.88;;;12.40;51.10;;;;;;5053079;28;20031;-68
2021/04/01 00:45:19;;;;;;;11.15;6.20;;;12.40;51.30;;;;;;5053305;28;20462;-68
2021/04/01 00:47:48;;;;;;;13.35;6.15;;;12.40;51.50;;;;;;5062596;28;20035;-68
2021/04/01 00:50:17;;;;;;;11.80;6.20;;;12.40;51.70;;;;;;5067736;28;20510;-68
2021/04/01 00:52:42;;;;;;;11.10;6.20;;;12.40;51.90;;;;;;5072627;28;20059;-68
2021/04/01 00:55:09;;;;;;;11.32;5.75;;;12.30;51.80;;;;;;5053691;28;20071;-68
2021/04/01 00:57:37;;;;;;;11.90;6.28;;;12.40;51.70;;;;;;5061326;28;20425;-68
2021/04/01 01:00:06;;;;;;;12.50;6.72;;;12.30;51.50;;;;;;5063271;28;20059;-68
2021/04/01 01:02:32;;;;;;;11.52;6.00;;;12.30;51.70;;;;;;5071750;28;20337;-67
2021/04/01 01:04:59;;;;;;;10.93;6.40;;;12.20;51.60;;;;;;5071404;28;20039;-68
2021/04/01 01:07:24;;;;;;;10.80;5.85;;;12.10;51.60;;;;;;5071407;28;20032;-67
2021/04/01 01:09:50;;;;;;;13.88;5.78;;;12.00;51.60;;;;;;5059404;28;20017;-67
2021/04/01 01:12:16;;;;;;;14.50;6.55;;;11.90;51.80;;;;;;5074676;28;20028;-68
2021/04/01 01:14:41;;;;;;;10.65;5.50;;;11.80;51.80;;;;;;5072832;28;20024;-68
2021/04/01 01:17:07;;;;;;;15.45;6.28;;;11.70;51.90;;;;;;5064602;28;20119;-67
2021/04/01 01:19:40;;;;;;;16.48;7.30;;;11.60;52.00;;;;;;5070570;28;20385;-68
2021/04/01 01:22:06;;;;;;;10.65;5.30;;;11.50;52.70;;;;;;5057080;28;20488;-68
2021/04/01 01:24:33;;;;;;;12.10;5.93;;;11.40;52.50;;;;;;5063429;28;20360;-68
2021/04/01 01:27:00;;;;;;;10.30;5.82;;;11.40;52.70;;;;;;5060502;28;20024;-68
2021/04/01 01:29:25;;;;;;;12.55;5.82;;;11.40;52.80;;;;;;5064902;28;20058;-68
2021/04/01 01:31:51;;;;;;;11.45;5.50;;;11.30;53.00;;;;;;5056704;28;20060;-68
2021/04/01 01:34:17;;;;;;;12.07;6.03;;;11.30;52.90;;;;;;5061012;28;20029;-67
2021/04/01 01:36:44;;;;;;;14.02;5.50;;;11.30;52.90;;;;;;5060923;28;20031;-67
2021/04/01 01:39:10;;;;;;;9.38;5.82;;;11.30;52.80;;;;;;5074944;28;20430;-68
2021/04/01 01:41:35;;;;;;;10.18;5.63;;;11.30;53.10;;;;;;5072264;28;20036;-67
2021/04/01 01:44:02;;;;;;;13.25;6.22;;;11.20;52.90;;;;;;5074097;28;20027;-67
2021/04/01 01:46:28;;;;;;;12.75;5.93;;;11.10;53.50;;;;;;5075789;28;20027;-67
2021/04/01 01:48:58;;;;;;;8.27;5.20;;;11.10;53.20;;;;;;5071459;28;20118;-68
2021/04/01 01:51:24;;;;;;;9.80;5.50;;;11.10;53.50;;;;;;5062157;28;20017;-68
2021/04/01 01:53:51;;;;;;;9.20;5.95;;;11.10;53.40;;;;;;5056835;28;20475;-67
2021/04/01 01:56:21;;;;;;;11.82;5.68;;;11.00;53.60;;;;;;5056583;28;20047;-68
2021/04/01 01:58:52;;;;;;;10.13;6.03;;;11.10;53.80;;;;;;5088147;28;20474;-68
2021/04/01 02:01:21;;;;;;;11.15;5.60;;;11.10;53.50;;;;;;5085214;28;20032;-68
2021/04/01 02:03:46;;;;;;;9.07;5.10;;;11.10;53.20;;;;;;5065870;28;20020;-68
2021/04/01 02:06:14;;;;;;;10.45;5.93;;;11.00;53.10;;;;;;5074435;28;20448;-67
2021/04/01 02:08:39;;;;;;;10.50;6.03;;;10.90;53.50;;;;;;5074827;28;20464;-69
2021/04/01 02:11:06;;;;;;;12.93;6.65;;;10.90;53.80;;;;;;5058577;28;20027;-68
2021/04/01 02:13:33;;;;;;;12.05;6.32;;;10.90;53.70;;;;;;5059070;28;20012;-67
2021/04/01 02:15:59;;;;;;;14.30;7.00;;;10.90;53.50;;;;;;5074414;28;20024;-67
2021/04/01 02:18:27;;;;;;;13.02;7.20;;;10.90;53.50;;;;;;5075152;28;20031;-67
2021/04/01 02:20:54;;;;;;;11.05;6.65;;;10.80;53.60;;;;;;5067011;28;20020;-67
2021/04/01 02:23:24;;;;;;;11.70;7.25;;;10.80;53.90;;;;;;5073248;28;20081;-68
2021/04/01 02:25:51;;;;;;;14.15;7.05;;;10.80;53.80;;;;;;5084972;28;20522;-68
2021/04/01 02:28:20;;;;;;;17.92;6.85;;;10.80;53.70;;;;;;5089164;28;20028;-67
2021/04/01 02:30:48;;;;;;;13.98;7.05;;;10.70;53.70;;;;;;5055099;28;20028;-68
2021/04/01 02:33:16;;;;;;;12.85;6.68;;;10.60;53.80;;;;;;5073362;28;20032;-67
2021/04/01 02:35:42;;;;;;;14.02;6.75;;;10.50;53.90;;;;;;5054524;28;20418;-68
2021/04/01 02:38:08;;;;;;;14.52;6.32;;;10.40;53.90;;;;;;5071850;28;20078;-68
2021/04/01 02:40:36;;;;;;;9.63;6.20;;;10.40;54.50;;;;;;5070987;28;20032;-68
2021/04/01 02:43:02;;;;;;;15.70;6.45;;;10.40;54.80;;;;;;5055724;28;20062;-68
2021/04/01 02:45:28;;;;;;;13.18;6.95;;;10.50;54.80;;;;;;5060323;28;20024;-68
2021/04/01 02:47:53;;;;;;;17.42;7.15;;;10.50;54.60;;;;;;5071665;28;20031;-68
2021/04/01 02:50:21;;;;;;;11.73;6.57;;;10.50;54.40;;;;;;5074949;28;20115;-67
2021/04/01 02:52:47;;;;;;;15.60;6.20;;;10.50;54.40;;;;;;5086315;28;20024;-68
2021/04/01 02:55:13;;;;;;;14.60;6.50;;;10.50;54.30;;;;;;5076786;28;20377;-68
2021/04/01 02:57:40;;;;;;;16.15;7.22;;;10.40;54.30;;;;;;5067781;28;20515;-68
2021/04/01 03:00:17;;;;;;;14.27;7.15;;;10.40;54.40;;;;;;5072000;28;20063;-67
2021/04/01 03:02:59;;;;;;;16.15;8.07;;;10.40;54.70;;;;;;5067734;28;20419;-68
2021/04/01 03:05:25;;;;;;;13.80;6.85;;;10.30;54.50;;;;;;5069703;28;20036;-68
2021/04/01 03:07:51;;;;;;;13.70;7.60;;;10.20;54.40;;;;;;5068527;28;20028;-68
2021/04/01 03:10:16;;;;;;;13.23;6.65;;;10.10;54.50;;;;;;5059691;28;20089;-67
2021/04/01 03:12:42;;;;;;;11.55;6.43;;;10.10;54.60;;;;;;5055614;28;20028;-67
2021/04/01 03:15:10;;;;;;;11.35;6.20;;;10.10;54.70;;;;;;5055165;28;20032;-66
2021/04/01 03:17:40;;;;;;;9.25;6.53;;;10.10;54.90;;;;;;5072255;28;20060;-67
2021/04/01 03:20:06;;;;;;;12.10;5.80;;;10.10;54.90;;;;;;5058035;28;20033;-66
2021/04/01 03:22:32;;;;;;;10.13;5.90;;;10.10;54.90;;;;;;5067806;28;20024;-67
2021/04/01 03:24:57;;;;;;;14.45;6.13;;;10.10;55.00;;;;;;5058696;28;20028;-67
2021/04/01 03:27:23;;;;;;;12.60;5.80;;;10.10;55.10;;;;;;5060805;28;20392;-67
2021/04/01 03:30:05;;;;;;;11.13;5.78;;;10.10;55.10;;;;;;5055646;28;20409;-67
2021/04/01 03:32:33;;;;;;;11.75;6.03;;;10.10;55.10;;;;;;5056946;28;20090;-67
2021/04/01 03:34:59;;;;;;;9.98;5.65;;;10.10;55.30;;;;;;5052785;28;20518;-66
2021/04/01 03:37:24;;;;;;;9.52;5.72;;;10.10;55.10;;;;;;5064116;28;20039;-66
2021/04/01 03:39:50;;;;;;;7.57;5.00;;;10.10;55.40;;;;;;5068263;28;20519;-68
2021/04/01 03:42:16;;;;;;;11.35;5.70;;;10.10;55.20;;;;;;5061455;28;20028;-67
2021/04/01 03:44:42;;;;;;;10.93;5.93;;;10.10;55.10;;;;;;5053297;28;20546;-67
2021/04/01 03:47:08;;;;;;;9.65;5.75;;;10.00;55.40;;;;;;5060795;28;20039;-67
2021/04/01 03:49:33;;;;;;;13.63;6.68;;;10.00;55.60;;;;;;5053694;28;20028;-67
2021/04/01 03:51:59;;;;;;;10.68;5.63;;;10.00;55.60;;;;;;5069742;28;20364;-66
2021/04/01 03:54:24;;;;;;;15.55;5.85;;;10.00;55.50;;;;;;5072758;28;20445;-68
2021/04/01 03:56:50;;;;;;;9.13;5.00;;;10.00;55.30;;;;;;5068958;28;20032;-68
2021/04/01 03:59:19;;;;;;;14.93;5.45;;;9.90;55.20;;;;;;5074902;28;20572;-68
2021/04/01 04:09:30;;;;;;;12.65;5.63;;;9.60;55.80;;;;;;5087629;28;20059;-68
2021/04/01 04:12:21;;;;;;;12.68;5.45;;;9.50;55.90;;;;;;5066778;28;20226;-66
2021/04/01 04:14:45;;;;;;;9.20;5.40;;;9.50;56.00;;;;;;5088644;28;20036;-68
2021/04/01 04:17:10;;;;;;;8.30;4.95;;;9.40;56.00;;;;;;5072504;28;20496;-68
2021/04/01 04:19:36;;;;;;;7.30;4.90;;;9.30;56.10;;;;;;5071767;28;20047;-67
2021/04/01 04:22:02;;;;;;;12.07;5.15;;;9.30;56.30;;;;;;5059773;28;20480;-68
2021/04/01 04:24:29;;;;;;;7.25;5.00;;;9.30;56.40;;;;;;5062956;28;20130;-68
2021/04/01 04:26:58;;;;;;;8.55;4.90;;;9.30;56.50;;;;;;5069864;28;20095;-68
2021/04/01 04:29:24;;;;;;;13.60;5.78;;;9.30;56.50;;;;;;5066347;28;20020;-68
2021/04/01 04:31:50;;;;;;;10.65;5.38;;;9.40;56.50;;;;;;5057349;28;20051;-67
2021/04/01 04:34:15;;;;;;;15.07;5.53;;;9.40;56.50;;;;;;5056668;28;20030;-68
2021/04/01 04:36:41;;;;;;;10.35;4.80;;;9.40;56.50;;;;;;5066046;28;20353;-68
2021/04/01 04:39:07;;;;;;;8.77;5.53;;;9.40;56.30;;;;;;5072614;28;20028;-68
2021/04/01 04:41:32;;;;;;;9.00;5.20;;;9.40;56.50;;;;;;5071960;28;20024;-67
2021/04/01 04:43:58;;;;;;;8.68;4.80;;;9.40;56.60;;;;;;5072370;28;20059;-69
2021/04/01 04:46:23;;;;;;;11.35;5.22;;;9.40;56.80;;;;;;5056018;28;20017;-68
2021/04/01 04:48:49;;;;;;;10.73;5.20;;;9.50;56.70;;;;;;5053793;28;20378;-68
2021/04/01 04:51:15;;;;;;;12.45;4.80;;;9.50;56.70;;;;;;5075723;28;20024;-68
2021/04/01 04:53:40;;;;;;;7.55;4.88;;;9.50;56.70;;;;;;5093272;28;20118;-68
2021/04/01 04:56:14;;;;;;;10.05;4.97;;;9.50;56.80;;;;;;5066513;28;20468;-68
2021/04/01 04:58:50;;;;;;;10.77;5.50;;;9.50;56.60;;;;;;5072863;28;20051;-68
2021/04/01 05:08:57;;;;;;;10.70;4.88;;;9.40;56.70;;;;;;5090856;28;20099;-68
2021/04/01 05:11:25;;;;;;;8.38;4.82;;;9.40;56.80;;;;;;5056637;28;20503;-69
2021/04/01 05:13:50;;;;;;;7.38;5.00;;;9.30;56.80;;;;;;5052508;28;20025;-67
2021/04/01 05:16:16;;;;;;;12.75;6.03;;;9.30;56.90;;;;;;5069807;28;20081;-68
2021/04/01 05:18:42;;;;;;;8.77;5.32;;;9.30;57.30;;;;;;5062065;28;20025;-68
2021/04/01 05:21:08;;;;;;;8.93;5.60;;;9.30;57.30;;;;;;5057625;28;20035;-67
2021/04/01 05:28:43;;;;;;;10.30;5.78;;;9.30;57.40;;;;;;5075447;28;20055;-68
2021/04/01 05:31:11;;;;;;;11.35;4.85;;;9.30;57.50;;;;;;5063442;28;20361;-68
2021/04/01 05:33:42;;;;;;;10.30;5.30;;;9.30;57.60;;;;;;5072886;28;20043;-68
2021/04/01 05:36:09;;;;;;;12.70;5.28;;;9.40;57.70;;;;;;5072112;28;20028;-68
2021/04/01 05:38:36;;;;;;;8.43;5.22;;;9.40;57.50;;;;;;5072539;28;20020;-69
2021/04/01 05:41:02;;;;;;;10.02;5.07;;;9.40;57.20;;;;;;5072117;28;20035;-69
2021/04/01 05:43:32;;;;;;;13.15;4.95;;;9.30;57.10;;;;;;5070210;28;20035;-68
2021/04/01 05:46:14;;;;;;;9.68;5.55;;;9.30;57.40;;;;;;5053259;28;20075;-67
2021/04/01 05:59:54;;;;;;;9.18;6.03;;;9.30;57.90;;;;;;5044106;28;20504;-68
2021/04/01 06:02:39;;;;;;;11.70;6.00;;;9.40;57.70;;;;;;5063467;28;20434;-67
2021/04/01 06:05:09;;;;;;;9.02;6.10;;;9.40;57.60;;;;;;5055396;28;20164;-67
2021/04/01 06:07:41;;;;;;;34.72;14.48;;;9.50;57.60;;;;;;5068734;28;20024;-67
2021/04/01 06:10:09;;;;;;;13.20;7.60;;;9.50;57.80;;;;;;5075976;28;20118;-67
2021/04/01 06:12:34;;;;;;;14.82;6.75;;;9.60;57.70;;;;;;5076250;28;20063;-68
2021/04/01 06:15:12;;;;;;;14.18;7.30;;;9.60;57.60;;;;;;5075481;28;20051;-69
2021/04/01 06:17:46;;;;;;;14.70;6.95;;;9.60;57.70;;;;;;5057902;28;20063;-68
2021/04/01 06:20:13;;;;;;;11.80;7.15;;;9.60;57.70;;;;;;5055960;28;20123;-67
2021/04/01 06:22:41;;;;;;;16.13;7.57;;;9.60;57.90;;;;;;5065282;28;20073;-68
2021/04/01 06:25:12;;;;;;;16.77;7.15;;;9.70;58.20;;;;;;5079743;28;20024;-68
2021/04/01 06:27:42;;;;;;;15.27;7.03;;;9.80;58.20;;;;;;5063822;28;20119;-68
2021/04/01 06:32:59;;;;;;;12.60;6.68;;;10.00;58.10;;;;;;5084947;28;20377;-68
2021/04/01 06:40:46;;;;;;;11.02;6.10;;;10.40;58.40;;;;;;5093591;28;20044;-67
2021/04/01 06:43:18;;;;;;;13.60;6.68;;;10.60;58.40;;;;;;5070358;28;20119;-67
2021/04/01 06:45:52;;;;;;;11.10;5.25;;;10.80;58.50;;;;;;5073249;28;20081;-66
2021/04/01 06:48:21;;;;;;;10.32;5.32;;;11.00;58.10;;;;;;5059598;28;20032;-67
2021/04/01 06:50:49;;;;;;;12.30;6.38;;;11.10;57.40;;;;;;5074173;28;20031;-66
2021/04/01 06:53:33;;;;;;;11.65;5.93;;;11.30;57.10;;;;;;5070861;28;20108;-67
2021/04/01 06:56:18;;;;;;;10.18;5.45;;;11.40;57.70;;;;;;5073615;28;20379;-67
2021/04/01 07:04:18;;;;;;;10.93;4.97;;;11.80;56.50;;;;;;5089171;28;20030;-67
2021/04/01 07:06:49;;;;;;;11.10;5.10;;;12.00;56.10;;;;;;5066467;28;20556;-67
2021/04/01 07:09:35;;;;;;;8.13;5.05;;;12.20;55.90;;;;;;5073832;28;20024;-68
2021/04/01 07:12:14;;;;;;;16.55;5.85;;;12.60;56.10;;;;;;5071201;28;20112;-67
2021/04/01 07:14:42;;;;;;;8.90;5.15;;;12.90;55.50;;;;;;5073259;28;20020;-68
2021/04/01 07:17:12;;;;;;;6.88;4.95;;;13.20;54.80;;;;;;5061125;28;20048;-68
2021/04/01 07:48:12;;;;;;;9.90;5.65;;;16.20;50.90;;;;;;5083545;28;20564;-68
2021/04/01 07:50:40;;;;;;;10.30;6.20;;;16.50;50.40;;;;;;5073210;28;20137;-68
2021/04/01 07:53:08;;;;;;;11.82;5.75;;;16.70;50.70;;;;;;5073870;28;20103;-67
2021/04/01 07:56:18;;;;;;;14.52;6.45;;;17.00;50.50;;;;;;5062488;28;20025;-68
2021/04/01 08:03:54;;;;;;;9.25;5.22;;;18.40;49.30;;;;;;5091927;28;20028;-68
2021/04/01 08:06:24;;;;;;;23.48;5.72;;;18.70;48.70;;;;;;5061551;28;20460;-68
2021/04/01 08:08:52;;;;;;;12.57;5.30;;;19.20;48.20;;;;;;5068704;28;20060;-68
2021/04/01 08:11:28;;;;;;;10.75;5.40;;;19.70;48.10;;;;;;5072904;28;20112;-68
2021/04/01 08:14:41;;;;;;;12.98;5.40;;;20.10;47.00;;;;;;5073083;28;20107;-68
2021/04/01 08:17:09;;;;;;;11.27;5.22;;;20.70;47.00;;;;;;5077938;28;20445;-68
2021/04/01 08:19:38;;;;;;;14.85;6.32;;;21.30;45.50;;;;;;5073546;28;20596;-68
2021/04/01 08:22:10;;;;;;;14.55;5.90;;;21.50;43.80;;;;;;5057489;28;20111;-69
2021/04/01 08:24:46;;;;;;;11.88;5.57;;;21.50;43.10;;;;;;5052379;28;20028;-68
2021/04/01 08:35:25;;;;;;;12.75;5.40;;;22.60;42.40;;;;;;5089934;28;20035;-67
2021/04/01 08:40:28;;;;;;;13.73;5.53;;;23.20;42.00;;;;;;5075034;28;20055;-68
2021/04/01 08:42:54;;;;;;;13.38;5.07;;;23.20;41.30;;;;;;5053431;28;20481;-67
2021/04/01 08:45:54;;;;;;;10.00;5.15;;;23.30;41.30;;;;;;5060655;28;20029;-67
2021/04/01 08:48:36;;;;;;;13.38;5.28;;;23.80;41.10;;;;;;5073181;28;20024;-68
2021/04/01 08:51:08;;;;;;;;;;;24.20;39.30;;;;;;5070897;28;20166;-67
2021/04/01 08:54:00;;;;;;;19.13;5.17;;;24.00;39.60;;;;;;5087648;28;19908;-67
2021/04/01 08:56:47;;;;;;;14.93;4.95;;;23.90;39.80;;;;;;5053173;28;20105;-66
2021/04/01 08:59:20;;;;;;;13.77;5.38;;;23.70;39.70;;;;;;5069898;28;20028;-67
2021/04/01 09:01:54;;;;;;;16.13;6.53;;;23.50;40.60;;;;;;5063160;28;20089;-67
2021/04/01 09:04:23;;;;;;;11.60;5.03;;;23.30;40.40;;;;;;5061157;28;20235;-67
2021/04/01 09:06:52;;;;;;;13.80;5.35;;;23.20;40.70;;;;;;5072755;28;20075;-67
2021/04/01 09:09:29;;;;;;;12.00;5.28;;;23.30;40.30;;;;;;5070039;28;20028;-68
2021/04/01 09:12:18;;;;;;;14.73;5.78;;;23.50;40.30;;;;;;5066590;28;20491;-67
2021/04/01 09:14:50;;;;;;;13.88;5.50;;;23.70;40.30;;;;;;5052213;28;20024;-67
2021/04/01 09:17:18;;;;;;;14.32;5.25;;;24.00;39.60;;;;;;5068303;28;20443;-67
2021/04/01 09:19:45;;;;;;;15.80;5.50;;;24.30;39.40;;;;;;5072117;28;20496;-67
2021/04/01 09:22:45;;;;;;;12.23;4.95;;;24.60;39.00;;;;;;5056185;28;20038;-66
2021/04/01 09:25:11;;;;;;;14.75;4.97;;;25.50;38.00;;;;;;5051623;28;20025;-66
2021/04/01 09:27:44;;;;;;;11.43;4.72;;;26.30;37.10;;;;;;5067645;28;20657;-67
2021/04/01 09:30:11;;;;;;;8.50;4.18;;;27.00;36.30;;;;;;5065270;28;20040;-66
2021/04/01 09:32:38;;;;;;;10.90;3.40;;;27.60;35.50;;;;;;5083998;28;20026;-67
2021/04/01 09:35:07;;;;;;;7.28;3.42;;;28.10;34.90;;;;;;5067159;28;20025;-66
2021/04/01 09:37:33;;;;;;;10.40;3.40;;;28.50;34.40;;;;;;5066741;28;20337;-67
2021/04/01 09:40:10;;;;;;;9.77;3.75;;;28.70;34.30;;;;;;5066190;28;20024;-67
2021/04/01 09:42:43;;;;;;;10.73;3.60;;;28.90;34.30;;;;;;5062569;28;20024;-66
2021/04/01 09:45:11;;;;;;;14.80;4.05;;;28.70;34.10;;;;;;5068268;28;20028;-67
2021/04/01 09:47:39;;;;;;;10.40;3.30;;;28.50;34.30;;;;;;5075972;28;20062;-67
2021/04/01 09:50:05;;;;;;;13.90;3.15;;;28.30;34.30;;;;;;5074289;28;20026;-67
2021/04/01 09:52:33;;;;;;;3.97;2.60;;;28.20;34.60;;;;;;5071838;28;20303;-67
2021/04/01 09:55:22;;;;;;;4.65;2.88;;;28.00;34.70;;;;;;5099555;28;20028;-67
2021/04/01 09:57:50;;;;;;;6.18;2.75;;;27.80;34.60;;;;;;5086231;28;20028;-67
2021/04/01 10:00:48;;;;;;;5.15;2.13;;;27.60;35.00;;;;;;5056203;28;20025;-66
2021/04/01 10:03:20;;;;;;;3.92;2.30;;;27.30;34.90;;;;;;5064380;28;20032;-67
2021/04/01 10:05:47;;;;;;;7.85;3.50;;;26.90;35.60;;;;;;5073733;28;20257;-67
2021/04/01 10:08:31;;;;;;;5.85;2.67;;;26.80;36.30;;;;;;5069405;28;20484;-67
2021/04/01 10:11:08;;;;;;;5.40;2.47;;;26.60;35.30;;;;;;5057290;28;20036;-67
2021/04/01 10:13:34;;;;;;;8.32;2.22;;;26.60;35.40;;;;;;5063724;28;20032;-67
2021/04/01 10:16:00;;;;;;;6.93;2.38;;;26.50;35.40;;;;;;5073081;28;20020;-67
2021/04/01 10:18:39;;;;;;;5.65;2.10;;;26.40;35.30;;;;;;5092215;28;20024;-67
2021/04/01 10:21:08;;;;;;;9.85;2.90;;;26.40;35.10;;;;;;5058800;28;20032;-66
2021/04/01 10:23:48;;;;;;;8.32;2.83;;;26.30;35.60;;;;;;5057651;28;20028;-67
2021/04/01 10:26:15;;;;;;;6.00;2.63;;;26.40;35.80;;;;;;5059786;28;20060;-67
2021/04/01 10:29:16;;;;;;;5.45;2.90;;;26.40;35.60;;;;;;5064181;28;20050;-68
2021/04/01 10:31:50;;;;;;;5.03;2.50;;;26.40;35.30;;;;;;5070041;28;20379;-66
2021/04/01 10:34:32;;;;;;;9.40;3.00;;;26.00;35.10;;;;;;5070679;28;20036;-67
2021/04/01 10:37:06;;;;;;;5.93;2.50;;;25.90;35.30;;;;;;5087168;22;20380;-68
2021/04/01 10:39:34;;;;;;;6.68;2.60;;;26.00;35.40;;;;;;5031636;28;20272;-67
2021/04/01 10:42:02;;;;;;;6.72;2.63;;;26.00;35.70;;;;;;5016460;28;20018;-67
2021/04/01 10:44:27;;;;;;;5.93;2.70;;;25.90;35.30;;;;;;5013647;28;20033;-67
2021/04/01 10:46:59;;;;;;;8.45;2.78;;;25.90;35.20;;;;;;5012327;28;20033;-67
2021/04/01 10:49:33;;;;;;;8.75;2.50;;;25.80;35.00;;;;;;5045782;28;20028;-67
2021/04/01 10:52:12;;;;;;;4.13;2.67;;;26.00;35.50;;;;;;5015502;28;20481;-67
2021/04/01 10:54:39;;;;;;;7.63;2.70;;;26.10;35.20;;;;;;4995403;28;20107;-67
2021/04/01 10:57:07;;;;;;;10.48;2.80;;;26.30;35.30;;;;;;5013921;28;20037;-68
2021/04/01 10:59:34;;;;;;;15.40;7.22;;;26.40;35.50;;;;;;5015127;28;20437;-68
2021/04/01 11:02:03;;;;;;;6.07;3.60;;;26.60;35.20;;;;;;5015324;28;20025;-68
2021/04/01 11:04:30;;;;;;;7.20;3.10;;;26.80;34.90;;;;;;5014411;28;20481;-68
2021/04/01 11:07:02;;;;;;;8.07;3.40;;;26.90;34.60;;;;;;5015424;28;20030;-68
2021/04/01 11:09:30;;;;;;;8.75;2.88;;;27.00;34.60;;;;;;5023233;28;20061;-68
2021/04/01 11:12:15;;;;;;;5.25;2.83;;;27.10;34.50;;;;;;5027664;28;20124;-68
2021/04/01 11:15:01;;;;;;;7.63;2.95;;;27.20;34.20;;;;;;5014312;28;20063;-68
2021/04/01 11:17:30;;;;;;;7.78;3.20;;;27.40;34.30;;;;;;5015187;28;20056;-67
2021/04/01 11:20:00;;;;;;;7.10;3.10;;;27.50;33.70;;;;;;5011097;28;20029;-68
2021/04/01 11:22:26;;;;;;;9.40;2.75;;;27.60;34.10;;;;;;5011510;28;20084;-68
2021/04/01 11:24:52;;;;;;;7.72;2.70;;;27.60;34.10;;;;;;5014321;28;20120;-68
2021/04/01 11:27:21;;;;;;;5.07;3.08;;;27.70;33.60;;;;;;5014693;28;20588;-68
2021/04/01 11:29:55;;;;;;;12.60;3.28;;;27.70;33.40;;;;;;5014709;28;20021;-68
2021/04/01 11:32:29;;;;;;;9.65;2.70;;;27.80;33.10;;;;;;5014883;28;20466;-68
2021/04/01 11:34:57;;;;;;;7.40;2.88;;;27.80;33.40;;;;;;5014299;28;20053;-67
2021/04/01 11:37:32;;;;;;;8.77;2.90;;;27.80;32.80;;;;;;5013317;28;20034;-68
2021/04/01 11:40:07;;;;;;;8.95;3.15;;;27.80;32.90;;;;;;5024252;28;20052;-68
2021/04/01 11:42:33;;;;;;;9.70;2.90;;;27.80;33.00;;;;;;5014517;28;20032;-68
2021/04/01 11:45:01;;;;;;;2.67;2.13;;;27.70;31.70;;;;;;5013053;28;20536;-68
2021/04/01 11:47:35;;;;;;;8.70;2.63;;;27.60;32.00;;;;;;5023177;28;20431;-68
2021/04/01 11:50:02;;;;;;;6.07;2.97;;;27.60;31.60;;;;;;5026087;28;20025;-68
2021/04/01 11:52:28;;;;;;;8.63;3.22;;;27.60;31.90;;;;;;5023904;28;20054;-68
2021/04/01 11:54:54;;;;;;;6.50;2.85;;;27.70;32.50;;;;;;5013222;28;20025;-68
2021/04/01 11:57:20;;;;;;;7.88;2.90;;;27.80;32.30;;;;;;5029344;28;20390;-68
2021/04/01 12:00:13;;;;;;;7.38;3.50;;;27.90;32.30;;;;;;5015090;28;20028;-68
2021/04/01 12:02:48;;;;;;;16.10;3.65;;;28.00;32.40;;;;;;4994929;28;20048;-68
2021/04/01 12:05:15;;;;;;;8.70;3.53;;;28.00;31.70;;;;;;5006926;28;20120;-68
2021/04/01 12:07:40;;;;;;;10.38;3.80;;;28.00;32.10;;;;;;5017478;28;20477;-68
2021/04/01 12:10:09;;;;;;;10.30;3.22;;;28.00;31.80;;;;;;5018662;28;20036;-68
2021/04/01 12:12:35;;;;;;;9.40;3.33;;;27.90;31.70;;;;;;5032029;28;20075;-68
2021/04/01 12:15:01;;;;;;;8.52;3.80;;;27.80;31.90;;;;;;5029204;28;20532;-68
2021/04/01 12:17:41;;;;;;;9.40;3.67;;;27.90;31.90;;;;;;5030254;28;20489;-68
2021/04/01 12:20:16;;;;;;;7.68;3.08;;;27.80;31.70;;;;;;5013845;28;20056;-68
2021/04/01 12:22:43;;;;;;;9.18;3.13;;;27.60;32.10;;;;;;5013468;28;20029;-68
2021/04/01 12:25:13;;;;;;;13.45;3.35;;;27.50;31.90;;;;;;5004672;28;20379;-68
2021/04/01 12:27:39;;;;;;;13.57;7.35;;;27.30;31.50;;;;;;4997147;28;20021;-69
2021/04/01 12:30:10;;;;;;;6.28;2.65;;;27.10;31.40;;;;;;5012602;28;20069;-68
2021/04/01 12:32:37;;;;;;;5.43;3.22;;;26.90;31.60;;;;;;5013392;28;20108;-68
2021/04/01 12:35:15;;;;;;;9.02;3.45;;;26.90;31.60;;;;;;5023777;28;20022;-68
2021/04/01 12:37:42;;;;;;;5.43;2.20;;;26.80;31.30;;;;;;5003169;28;20032;-69
2021/04/01 12:40:11;;;;;;;6.45;2.05;;;26.60;31.00;;;;;;5025301;28;20075;-68
2021/04/01 12:42:38;;;;;;;5.30;1.52;;;26.50;30.80;;;;;;5033504;28;20025;-68
2021/04/01 12:45:25;;;;;;;5.22;1.92;;;26.50;30.20;;;;;;5023788;28;20032;-68
2021/04/01 12:48:12;;;;;;;5.25;2.25;;;26.30;30.00;;;;;;5015986;28;20420;-68
2021/04/01 12:50:41;;;;;;;8.05;2.30;;;26.20;29.90;;;;;;5021318;28;20512;-68
2021/04/01 12:53:07;;;;;;;7.00;2.38;;;26.00;30.00;;;;;;5009849;28;20030;-70
2021/04/01 12:55:45;;;;;;;8.48;2.58;;;25.80;29.80;;;;;;4993646;28;20393;-70
2021/04/01 13:01:32;;;;;;;9.65;2.90;;;25.50;29.80;;;;;;5020148;28;20457;-71
2021/04/01 13:04:03;;;;;;;8.48;2.92;;;25.30;30.20;;;;;;5012995;28;20033;-71
2021/04/01 13:11:38;;;;;;;10.90;3.70;;;25.00;30.50;;;;;;5055003;28;20028;-70
2021/04/01 13:14:04;;;;;;;10.18;4.53;;;25.00;30.90;;;;;;5025201;28;20539;-70
2021/04/01 13:16:30;;;;;;;10.30;3.90;;;25.00;30.70;;;;;;5017409;28;20033;-71
2021/04/01 13:18:56;;;;;;;6.63;3.30;;;25.10;31.20;;;;;;5013141;28;20080;-70
2021/04/01 13:26:33;;;;;;;8.10;4.00;;;25.20;31.40;;;;;;5035488;28;20064;-72
2021/04/01 13:29:00;;;;;;;9.30;4.00;;;25.30;31.20;;;;;;5067686;23;20642;-71
2021/04/01 13:31:43;;;;;;;13.18;4.78;;;25.30;31.30;;;;;;5035918;28;20109;-70
2021/04/01 13:39:26;;;;;;;9.35;4.50;;;26.10;31.70;;;;;;5042891;28;20052;-69
2021/04/01 13:44:24;;;;;;;14.05;4.55;;;26.20;30.70;;;;;;5045452;28;20370;-68
2021/04/01 13:46:50;;;;;;;12.95;4.85;;;26.20;31.30;;;;;;5037765;28;20107;-68
2021/04/01 13:49:25;;;;;;;11.07;4.55;;;26.30;31.30;;;;;;5045012;28;20111;-68
2021/04/01 13:51:55;;;;;;;8.23;4.97;;;26.30;31.10;;;;;;5046540;28;20112;-68
2021/04/01 13:54:31;;;;;;;8.45;4.45;;;26.20;31.20;;;;;;5013257;28;20030;-68
2021/04/01 13:59:55;;;;;;;10.23;4.93;;;26.00;31.50;;;;;;5034520;28;20072;-68
2021/04/01 14:10:48;;;;;;;10.63;4.15;;;25.50;31.60;;;;;;5029942;28;20039;-68
2021/04/01 14:13:21;;;;;;;12.65;5.03;;;25.40;32.20;;;;;;5032893;28;20021;-68
2021/04/01 14:15:47;;;;;;;11.35;4.13;;;25.30;31.80;;;;;;5032247;28;20513;-68
2021/04/01 14:18:15;;;;;;;8.20;4.00;;;25.20;32.00;;;;;;5032353;28;20040;-67
2021/04/01 14:20:41;;;;;;;10.90;3.75;;;25.20;32.40;;;;;;5032733;28;20025;-68
2021/04/01 14:23:07;;;;;;;10.13;4.63;;;25.10;32.40;;;;;;5032464;28;20503;-71
2021/04/01 14:25:39;;;;;;;8.60;4.55;;;25.00;32.30;;;;;;5032019;28;20528;-68
2021/04/01 14:28:05;;;;;;;8.93;4.10;;;24.90;32.00;;;;;;5032582;28;20032;-69
2021/04/01 14:30:32;;;;;;;11.93;4.53;;;24.80;32.50;;;;;;5031162;28;20133;-69
2021/04/01 14:32:59;;;;;;;10.35;4.82;;;24.70;32.30;;;;;;5031784;28;20393;-68
2021/04/01 14:35:26;;;;;;;18.33;9.00;;;24.60;32.40;;;;;;5031986;28;20440;-68
2021/04/01 14:37:55;;;;;;;11.02;4.63;;;24.50;32.50;;;;;;5035756;28;20132;-68
2021/04/01 14:40:24;;;;;;;9.40;4.93;;;24.40;32.80;;;;;;5042817;28;20029;-68
2021/04/01 14:42:51;;;;;;;13.05;4.93;;;24.40;33.40;;;;;;5051264;28;20032;-68
2021/04/01 14:45:17;;;;;;;8.65;5.00;;;24.40;33.10;;;;;;5033710;28;20030;-69
2021/04/01 14:47:43;;;;;;;8.57;4.28;;;24.40;32.90;;;;;;5039166;28;20017;-69
2021/04/01 14:50:11;;;;;;;9.63;4.57;;;24.40;33.10;;;;;;5040739;28;20498;-69
2021/04/01 14:52:37;;;;;;;14.25;4.28;;;24.40;34.00;;;;;;5031130;28;20370;-68
2021/04/01 14:55:05;;;;;;;8.48;4.10;;;24.50;33.40;;;;;;5030036;28;20025;-69
2021/04/01 14:57:34;;;;;;;14.82;4.82;;;24.50;33.50;;;;;;5032284;28;20486;-69
2021/04/01 15:00:07;;;;;;;12.90;4.50;;;24.60;33.50;;;;;;5030932;28;20029;-68